createdAt,value
2017-05-29T00:01:16.678Z,21.89
2017-05-29T00:02:17.243Z,21.93
2017-05-29T00:03:17.808Z,21.91
2017-05-29T00:04:18.362Z,21.83
2017-05-29T00:05:18.928Z,21.83
2017-05-29T00:06:19.490Z,21.80
2017-05-29T00:07:20.051Z,21.73
2017-05-29T00:08:20.602Z,21.61
2017-05-29T00:09:21.179Z,21.43
2017-05-29T00:10:21.730Z,21.39
2017-05-29T00:11:22.299Z,21.32
2017-05-29T00:12:22.851Z,21.30
2017-05-29T00:13:23.404Z,21.25
2017-05-29T00:14:23.958Z,21.27
2017-05-29T00:15:24.525Z,21.28
2017-05-29T00:16:25.091Z,21.30
2017-05-29T00:17:25.658Z,21.28
2017-05-29T00:18:26.209Z,21.28
2017-05-29T00:19:26.770Z,21.27
2017-05-29T00:20:27.332Z,21.22
2017-05-29T00:21:27.890Z,21.17
2017-05-29T00:22:28.441Z,21.24
2017-05-29T00:23:28.994Z,21.22
2017-05-29T00:24:29.553Z,21.22
2017-05-29T00:25:30.115Z,21.18
2017-05-29T00:26:30.722Z,21.17
2017-05-29T00:27:31.285Z,21.14
2017-05-29T00:28:31.847Z,21.14
2017-05-29T00:29:32.400Z,21.15
2017-05-29T00:30:32.968Z,21.12
2017-05-29T00:31:33.537Z,21.12
2017-05-29T00:32:34.095Z,21.15
2017-05-29T00:33:34.652Z,21.14
2017-05-29T00:34:35.213Z,21.12
2017-05-29T00:35:35.779Z,21.12
2017-05-29T00:36:36.346Z,21.17
2017-05-29T00:37:36.898Z,21.12
2017-05-29T00:38:37.463Z,21.14
2017-05-29T00:39:38.033Z,21.17
2017-05-29T00:40:38.597Z,21.14
2017-05-29T00:41:39.153Z,21.18
2017-05-29T00:42:39.717Z,21.03
2017-05-29T00:43:40.273Z,20.96
2017-05-29T00:44:40.837Z,21.02
2017-05-29T00:45:41.398Z,21.00
2017-05-29T00:46:41.962Z,21.03
2017-05-29T00:47:42.527Z,20.99
2017-05-29T00:48:43.091Z,20.99
2017-05-29T00:49:43.644Z,20.96
2017-05-29T00:50:44.196Z,21.02
2017-05-29T00:51:44.757Z,21.00
2017-05-29T00:52:45.322Z,21.02
2017-05-29T00:53:45.893Z,21.03
2017-05-29T00:54:46.447Z,20.99
2017-05-29T00:55:47.001Z,20.95
2017-05-29T00:56:47.555Z,20.84
2017-05-29T00:57:48.109Z,20.96
2017-05-29T00:58:48.667Z,20.91
2017-05-29T00:59:49.231Z,20.85
2017-05-29T01:00:49.799Z,20.85
2017-05-29T01:01:50.368Z,20.88
2017-05-29T01:02:50.938Z,20.90
2017-05-29T01:03:51.504Z,20.91
2017-05-29T01:04:52.060Z,20.88
2017-05-29T01:05:52.631Z,20.87
2017-05-29T01:06:53.199Z,20.80
2017-05-29T01:07:53.763Z,20.80
2017-05-29T01:08:54.334Z,20.84
2017-05-29T01:09:54.884Z,20.87
2017-05-29T01:10:55.450Z,20.80
2017-05-29T01:11:56.020Z,20.77
2017-05-29T01:12:56.587Z,20.80
2017-05-29T01:13:57.144Z,20.80
2017-05-29T01:14:57.708Z,20.81
2017-05-29T01:15:58.260Z,20.80
2017-05-29T01:16:58.814Z,20.78
2017-05-29T01:17:59.379Z,20.78
2017-05-29T01:18:59.934Z,20.78
2017-05-29T01:20:00.501Z,20.81
2017-05-29T01:21:01.057Z,20.82
2017-05-29T01:22:01.604Z,20.81
2017-05-29T01:23:02.164Z,20.78
2017-05-29T01:24:02.733Z,20.78
2017-05-29T01:25:03.285Z,20.72
2017-05-29T01:26:03.839Z,20.72
2017-05-29T01:27:04.403Z,20.70
2017-05-29T01:28:04.958Z,20.65
2017-05-29T01:29:05.510Z,20.69
2017-05-29T01:30:06.072Z,20.67
2017-05-29T01:31:06.630Z,20.63
2017-05-29T01:32:07.198Z,20.54
2017-05-29T01:33:07.764Z,20.57
2017-05-29T01:34:08.332Z,20.60
2017-05-29T01:35:08.878Z,20.65
2017-05-29T01:36:09.443Z,20.60
2017-05-29T01:37:10.002Z,20.54
2017-05-29T01:38:10.566Z,20.48
2017-05-29T01:39:11.138Z,20.51
2017-05-29T01:40:11.687Z,20.47
2017-05-29T01:41:12.242Z,20.48
2017-05-29T01:42:12.813Z,20.43
2017-05-29T01:43:13.382Z,20.35
2017-05-29T01:44:13.936Z,20.40
2017-05-29T01:45:14.497Z,20.28
2017-05-29T01:46:15.061Z,20.32
2017-05-29T01:47:15.609Z,20.28
2017-05-29T01:48:16.171Z,20.39
2017-05-29T01:49:16.775Z,20.34
2017-05-29T01:50:17.327Z,20.35
2017-05-29T01:51:17.889Z,20.39
2017-05-29T01:52:18.451Z,20.28
2017-05-29T01:53:19.015Z,20.25
2017-05-29T01:54:19.570Z,20.25
2017-05-29T01:55:20.135Z,20.19
2017-05-29T01:56:20.702Z,20.26
2017-05-29T01:57:21.272Z,20.19
2017-05-29T01:58:21.826Z,20.31
2017-05-29T01:59:22.391Z,20.29
2017-05-29T02:00:22.953Z,20.31
2017-05-29T02:01:23.519Z,20.22
2017-05-29T02:02:24.074Z,20.16
2017-05-29T02:03:24.653Z,20.26
2017-05-29T02:04:25.182Z,20.17
2017-05-29T02:05:25.747Z,20.24
2017-05-29T02:06:26.299Z,20.19
2017-05-29T02:07:26.867Z,20.21
2017-05-29T02:08:27.432Z,20.11
2017-05-29T02:09:27.981Z,20.10
2017-05-29T02:10:28.545Z,20.16
2017-05-29T02:11:29.109Z,20.16
2017-05-29T02:12:29.664Z,20.13
2017-05-29T02:13:30.231Z,20.09
2017-05-29T02:14:30.796Z,20.04
2017-05-29T02:15:31.345Z,20.04
2017-05-29T02:16:31.900Z,19.98
2017-05-29T02:17:32.465Z,20.10
2017-05-29T02:18:33.034Z,20.13
2017-05-29T02:19:33.602Z,20.14
2017-05-29T02:20:34.167Z,20.14
2017-05-29T02:21:34.723Z,20.29
2017-05-29T02:22:35.293Z,20.25
2017-05-29T02:23:35.860Z,20.21
2017-05-29T02:24:36.422Z,20.24
2017-05-29T02:25:36.976Z,20.24
2017-05-29T02:26:37.530Z,20.24
2017-05-29T02:27:38.086Z,20.28
2017-05-29T02:28:38.650Z,20.16
2017-05-29T02:29:39.204Z,20.31
2017-05-29T02:30:39.764Z,20.26
2017-05-29T02:31:40.327Z,20.28
2017-05-29T02:32:40.890Z,20.25
2017-05-29T02:33:41.456Z,20.24
2017-05-29T02:34:42.006Z,20.25
2017-05-29T02:35:42.611Z,20.29
2017-05-29T02:36:43.180Z,20.29
2017-05-29T02:37:43.731Z,20.28
2017-05-29T02:38:44.291Z,20.31
2017-05-29T02:39:44.853Z,20.16
2017-05-29T02:40:45.423Z,20.28
2017-05-29T02:41:45.998Z,20.21
2017-05-29T02:42:46.542Z,20.24
2017-05-29T02:43:47.109Z,20.28
2017-05-29T02:44:47.679Z,20.28
2017-05-29T02:45:48.229Z,20.31
2017-05-29T02:46:48.780Z,20.31
2017-05-29T02:47:49.334Z,20.28
2017-05-29T02:48:49.900Z,20.22
2017-05-29T02:49:50.454Z,20.22
2017-05-29T02:50:51.021Z,20.28
2017-05-29T02:51:51.576Z,20.29
2017-05-29T02:52:52.128Z,20.25
2017-05-29T02:53:52.687Z,20.24
2017-05-29T02:54:53.242Z,20.17
2017-05-29T02:55:53.809Z,20.31
2017-05-29T02:56:54.365Z,20.29
2017-05-29T02:57:54.929Z,20.25
2017-05-29T02:58:55.534Z,20.28
2017-05-29T02:59:56.104Z,20.34
2017-05-29T03:00:56.657Z,20.32
2017-05-29T03:01:57.225Z,20.34
2017-05-29T03:02:57.794Z,20.32
2017-05-29T03:03:58.364Z,20.31
2017-05-29T03:04:58.928Z,20.26
2017-05-29T03:05:59.494Z,20.28
2017-05-29T03:07:00.060Z,20.28
2017-05-29T03:08:00.610Z,20.26
2017-05-29T03:09:01.162Z,20.34
2017-05-29T03:10:01.724Z,20.29
2017-05-29T03:11:02.290Z,20.26
2017-05-29T03:12:02.907Z,20.31
2017-05-29T03:13:03.469Z,20.28
2017-05-29T03:14:04.022Z,20.10
2017-05-29T03:15:04.587Z,20.13
2017-05-29T03:16:05.153Z,19.99
2017-05-29T03:17:05.708Z,20.04
2017-05-29T03:18:06.267Z,20.02
2017-05-29T03:19:06.837Z,19.91
2017-05-29T03:20:07.403Z,19.89
2017-05-29T03:21:07.960Z,19.85
2017-05-29T03:22:08.513Z,19.81
2017-05-29T03:23:09.066Z,19.80
2017-05-29T03:24:09.631Z,19.85
2017-05-29T03:25:10.190Z,19.67
2017-05-29T03:26:10.740Z,19.70
2017-05-29T03:27:11.305Z,19.77
2017-05-29T03:28:11.859Z,19.76
2017-05-29T03:29:12.426Z,19.70
2017-05-29T03:30:12.995Z,19.70
2017-05-29T03:31:13.549Z,19.77
2017-05-29T03:32:14.107Z,19.79
2017-05-29T03:33:14.678Z,19.76
2017-05-29T03:34:15.245Z,19.70
2017-05-29T03:35:15.814Z,19.73
2017-05-29T03:36:16.384Z,19.79
2017-05-29T03:37:16.952Z,19.71
2017-05-29T03:38:17.504Z,19.84
2017-05-29T03:39:18.061Z,19.81
2017-05-29T03:40:18.633Z,19.87
2017-05-29T03:41:19.203Z,19.88
2017-05-29T03:42:19.760Z,19.96
2017-05-29T03:43:20.333Z,19.96
2017-05-29T03:44:20.889Z,19.98
2017-05-29T03:45:21.459Z,19.96
2017-05-29T03:46:22.019Z,20.03
2017-05-29T03:47:22.583Z,20.02
2017-05-29T03:48:23.188Z,20.10
2017-05-29T03:49:23.754Z,20.16
2017-05-29T03:50:24.318Z,20.14
2017-05-29T03:51:24.878Z,20.25
2017-05-29T03:52:25.433Z,20.19
2017-05-29T03:53:26.005Z,20.22
2017-05-29T03:54:26.573Z,20.29
2017-05-29T03:55:27.142Z,20.28
2017-05-29T03:56:27.715Z,20.36
2017-05-29T03:57:28.283Z,20.29
2017-05-29T03:58:28.835Z,20.34
2017-05-29T03:59:29.401Z,20.42
2017-05-29T04:00:29.967Z,20.43
2017-05-29T04:01:30.532Z,20.42
2017-05-29T04:02:31.088Z,20.52
2017-05-29T04:03:31.654Z,20.48
2017-05-29T04:04:32.220Z,20.42
2017-05-29T04:05:32.781Z,20.54
2017-05-29T04:06:33.352Z,20.55
2017-05-29T04:07:33.908Z,20.54
2017-05-29T04:08:34.466Z,20.55
2017-05-29T04:09:35.040Z,20.63
2017-05-29T04:10:35.609Z,20.67
2017-05-29T04:11:36.165Z,20.77
2017-05-29T04:12:36.739Z,20.81
2017-05-29T04:13:37.300Z,20.80
2017-05-29T04:14:37.872Z,20.77
2017-05-29T04:15:38.433Z,20.81
2017-05-29T04:16:38.999Z,20.84
2017-05-29T04:17:39.563Z,20.81
2017-05-29T04:18:40.194Z,20.82
2017-05-29T04:19:40.777Z,20.77
2017-05-29T04:20:41.361Z,20.77
2017-05-29T04:21:41.937Z,20.80
2017-05-29T04:22:42.501Z,20.69
2017-05-29T04:23:43.068Z,20.69
2017-05-29T04:24:43.637Z,20.73
2017-05-29T04:25:44.214Z,20.78
2017-05-29T04:26:44.787Z,20.77
2017-05-29T04:27:45.362Z,20.78
2017-05-29T04:28:45.969Z,20.84
2017-05-29T04:29:46.525Z,20.81
2017-05-29T04:30:47.107Z,20.78
2017-05-29T04:31:47.680Z,20.77
2017-05-29T04:32:48.249Z,20.85
2017-05-29T04:33:48.824Z,20.82
2017-05-29T04:34:49.389Z,20.90
2017-05-29T04:35:49.962Z,20.80
2017-05-29T04:36:50.535Z,20.96
2017-05-29T04:37:51.111Z,20.98
2017-05-29T04:38:51.676Z,20.96
2017-05-29T04:39:52.244Z,21.10
2017-05-29T04:40:52.809Z,21.03
2017-05-29T04:41:53.385Z,21.07
2017-05-29T04:42:53.947Z,21.05
2017-05-29T04:43:54.522Z,21.14
2017-05-29T04:44:55.105Z,21.30
2017-05-29T04:45:55.682Z,21.45
2017-05-29T04:46:56.255Z,21.47
2017-05-29T04:47:56.831Z,21.89
2017-05-29T04:48:57.409Z,21.98
2017-05-29T04:49:57.981Z,22.21
2017-05-29T04:50:58.560Z,22.36
2017-05-29T04:51:59.132Z,22.50
2017-05-29T04:52:59.697Z,22.39
2017-05-29T04:54:00.281Z,22.35
2017-05-29T04:55:00.848Z,22.42
2017-05-29T04:56:01.430Z,22.48
2017-05-29T04:57:02.003Z,22.60
2017-05-29T04:58:02.576Z,22.73
2017-05-29T04:59:03.146Z,23.02
2017-05-29T05:00:03.726Z,23.32
2017-05-29T05:01:04.291Z,23.61
2017-05-29T05:02:04.862Z,23.95
2017-05-29T05:03:05.444Z,24.06
2017-05-29T05:04:06.024Z,23.88
2017-05-29T05:05:06.591Z,23.94
2017-05-29T05:06:07.174Z,23.76
2017-05-29T05:07:07.747Z,23.84
2017-05-29T05:08:08.332Z,24.05
2017-05-29T05:09:08.900Z,24.21
2017-05-29T05:10:09.472Z,24.21
2017-05-29T05:11:10.041Z,24.16
2017-05-29T05:12:10.711Z,24.11
2017-05-29T05:13:11.296Z,24.13
2017-05-29T05:14:11.875Z,24.11
2017-05-29T05:15:12.455Z,24.20
2017-05-29T05:16:13.038Z,24.14
2017-05-29T05:17:13.616Z,24.03
2017-05-29T05:18:14.189Z,23.99
2017-05-29T05:19:14.770Z,24.13
2017-05-29T05:20:15.407Z,24.28
2017-05-29T05:21:15.991Z,24.46
2017-05-29T05:22:16.560Z,24.70
2017-05-29T05:23:17.143Z,24.94
2017-05-29T05:24:17.724Z,25.29
2017-05-29T05:25:18.298Z,25.71
2017-05-29T05:26:18.888Z,25.95
2017-05-29T05:27:19.470Z,26.02
2017-05-29T05:28:20.053Z,26.21
2017-05-29T05:29:20.633Z,26.25
2017-05-29T05:30:21.200Z,26.41
2017-05-29T05:31:21.786Z,26.29
2017-05-29T05:32:22.356Z,26.48
2017-05-29T05:33:22.933Z,26.71
2017-05-29T05:34:23.521Z,26.87
2017-05-29T05:35:24.108Z,26.98
2017-05-29T05:36:24.694Z,26.99
2017-05-29T05:37:25.277Z,27.15
2017-05-29T05:38:25.863Z,27.39
2017-05-29T05:39:26.449Z,27.54
2017-05-29T05:40:27.026Z,27.62
2017-05-29T05:41:27.601Z,27.98
2017-05-29T05:42:28.177Z,28.23
2017-05-29T05:43:28.753Z,28.41
2017-05-29T05:44:29.329Z,28.60
2017-05-29T05:45:29.915Z,28.79
2017-05-29T05:46:30.504Z,29.17
2017-05-29T05:47:31.091Z,29.37
2017-05-29T05:48:31.665Z,29.25
2017-05-29T05:49:32.249Z,29.13
2017-05-29T05:50:32.834Z,29.27
2017-05-29T05:51:33.411Z,29.42
2017-05-29T05:52:34.003Z,29.29
2017-05-29T05:53:34.586Z,29.47
2017-05-29T05:54:35.160Z,29.37
2017-05-29T05:55:35.748Z,29.04
2017-05-29T05:56:36.337Z,29.20
2017-05-29T05:57:36.914Z,29.48
2017-05-29T05:58:37.493Z,29.97
2017-05-29T05:59:38.066Z,30.28
2017-05-29T06:00:38.656Z,30.37
2017-05-29T06:01:39.240Z,30.72
2017-05-29T06:02:39.828Z,30.90
2017-05-29T06:03:40.417Z,31.01
2017-05-29T06:04:40.998Z,30.91
2017-05-29T06:05:41.637Z,30.84
2017-05-29T06:06:42.166Z,30.71
2017-05-29T06:07:42.742Z,30.75
2017-05-29T06:08:43.320Z,31.05
2017-05-29T06:09:43.899Z,31.47
2017-05-29T06:10:44.476Z,31.49
2017-05-29T06:11:45.056Z,31.60
2017-05-29T06:12:45.650Z,31.32
2017-05-29T06:13:46.239Z,31.23
2017-05-29T06:14:46.824Z,31.37
2017-05-29T06:15:47.415Z,31.31
2017-05-29T06:16:47.992Z,31.62
2017-05-29T06:17:48.573Z,31.97
2017-05-29T06:18:49.164Z,32.00
2017-05-29T06:19:49.763Z,32.12
2017-05-29T06:20:50.341Z,32.39
2017-05-29T06:21:50.923Z,32.40
2017-05-29T06:22:51.514Z,32.61
2017-05-29T06:23:52.090Z,32.70
2017-05-29T06:24:52.680Z,32.67
2017-05-29T06:25:53.265Z,32.59
2017-05-29T06:26:53.858Z,32.56
2017-05-29T06:27:54.455Z,32.43
2017-05-29T06:28:55.058Z,32.43
2017-05-29T06:29:55.645Z,32.37
2017-05-29T06:30:56.223Z,32.47
2017-05-29T06:31:56.810Z,32.49
2017-05-29T06:32:57.389Z,32.47
2017-05-29T06:33:57.979Z,32.05
2017-05-29T06:34:58.559Z,31.96
2017-05-29T06:35:59.141Z,31.99
2017-05-29T06:36:59.739Z,32.12
2017-05-29T06:38:00.340Z,32.22
2017-05-29T06:39:00.970Z,32.18
2017-05-29T06:40:01.548Z,32.11
2017-05-29T06:41:02.135Z,32.05
2017-05-29T06:42:02.713Z,31.80
2017-05-29T06:43:03.310Z,31.61
2017-05-29T06:44:03.905Z,31.76
2017-05-29T06:45:04.499Z,32.03
2017-05-29T06:46:05.081Z,32.18
2017-05-29T06:47:05.662Z,32.18
2017-05-29T06:48:06.289Z,32.10
2017-05-29T06:49:06.889Z,32.29
2017-05-29T06:50:07.468Z,32.54
2017-05-29T06:51:08.050Z,32.63
2017-05-29T06:52:08.646Z,33.26
2017-05-29T06:53:09.239Z,33.55
2017-05-29T06:54:09.836Z,33.89
2017-05-29T06:55:10.429Z,34.16
2017-05-29T06:56:11.022Z,34.24
2017-05-29T06:57:11.613Z,34.64
2017-05-29T06:58:12.245Z,34.76
2017-05-29T06:59:12.843Z,34.70
2017-05-29T07:00:13.430Z,34.71
2017-05-29T07:01:14.027Z,34.86
2017-05-29T07:02:14.618Z,35.26
2017-05-29T07:03:15.209Z,35.25
2017-05-29T07:04:15.797Z,35.51
2017-05-29T07:05:16.390Z,35.79
2017-05-29T07:06:16.969Z,36.11
2017-05-29T07:07:17.550Z,36.36
2017-05-29T07:08:18.144Z,36.12
2017-05-29T07:09:18.739Z,36.14
2017-05-29T07:10:19.323Z,36.03
2017-05-29T07:11:19.912Z,35.92
2017-05-29T07:12:20.511Z,36.03
2017-05-29T07:13:21.093Z,36.12
2017-05-29T07:14:21.687Z,36.12
2017-05-29T07:15:22.281Z,36.30
2017-05-29T07:16:22.872Z,36.45
2017-05-29T07:17:23.455Z,36.61
2017-05-29T07:18:24.049Z,36.65
2017-05-29T07:19:24.642Z,36.67
2017-05-29T07:20:25.225Z,36.20
2017-05-29T07:21:25.868Z,36.23
2017-05-29T07:22:26.462Z,36.17
2017-05-29T07:23:27.053Z,36.34
2017-05-29T07:24:27.636Z,36.71
2017-05-29T07:25:28.221Z,36.61
2017-05-29T07:26:28.800Z,36.20
2017-05-29T07:27:29.383Z,35.98
2017-05-29T07:28:30.004Z,36.06
2017-05-29T07:29:30.558Z,35.96
2017-05-29T07:30:31.141Z,35.89
2017-05-29T07:31:31.730Z,35.91
2017-05-29T07:32:32.323Z,35.74
2017-05-29T07:33:32.912Z,35.91
2017-05-29T07:34:33.504Z,36.17
2017-05-29T07:35:34.096Z,36.19
2017-05-29T07:36:34.689Z,35.86
2017-05-29T07:37:35.279Z,35.70
2017-05-29T07:38:35.872Z,35.67
2017-05-29T07:39:36.470Z,35.82
2017-05-29T07:40:37.067Z,36.11
2017-05-29T07:41:37.669Z,36.19
2017-05-29T07:42:38.254Z,36.11
2017-05-29T07:43:38.829Z,35.66
2017-05-29T07:44:39.421Z,35.50
2017-05-29T07:45:40.005Z,35.33
2017-05-29T07:46:40.599Z,34.80
2017-05-29T07:47:41.199Z,34.74
2017-05-29T07:48:41.786Z,34.92
2017-05-29T07:49:42.381Z,34.70
2017-05-29T07:50:42.976Z,34.67
2017-05-29T07:51:43.568Z,34.56
2017-05-29T07:52:44.155Z,34.71
2017-05-29T07:53:44.743Z,34.76
2017-05-29T07:54:45.335Z,34.48
2017-05-29T07:55:45.922Z,34.60
2017-05-29T07:56:46.515Z,34.50
2017-05-29T07:57:47.156Z,34.57
2017-05-29T07:58:47.738Z,34.91
2017-05-29T07:59:48.318Z,35.07
2017-05-29T08:00:48.913Z,35.05
2017-05-29T08:01:49.510Z,34.74
2017-05-29T08:02:50.106Z,34.56
2017-05-29T08:03:50.702Z,34.64
2017-05-29T08:04:51.283Z,34.71
2017-05-29T08:05:51.863Z,34.50
2017-05-29T08:06:52.465Z,34.74
2017-05-29T08:07:53.099Z,34.84
2017-05-29T08:08:53.695Z,34.60
2017-05-29T08:09:54.279Z,34.60
2017-05-29T08:10:54.870Z,34.64
2017-05-29T08:11:55.467Z,34.74
2017-05-29T08:12:56.063Z,34.91
2017-05-29T08:13:56.658Z,34.80
2017-05-29T08:14:57.240Z,34.86
2017-05-29T08:15:57.823Z,34.99
2017-05-29T08:16:58.408Z,35.33
2017-05-29T08:17:59.040Z,35.42
2017-05-29T08:18:59.629Z,35.07
2017-05-29T08:20:00.217Z,34.95
2017-05-29T08:21:00.808Z,35.13
2017-05-29T08:22:01.388Z,35.11
2017-05-29T08:23:01.981Z,35.15
2017-05-29T08:24:02.573Z,35.20
2017-05-29T08:25:03.153Z,35.07
2017-05-29T08:26:03.736Z,34.76
2017-05-29T08:27:04.317Z,34.74
2017-05-29T08:28:04.896Z,34.77
2017-05-29T08:29:05.538Z,34.64
2017-05-29T08:30:06.077Z,34.53
2017-05-29T08:31:06.659Z,34.54
2017-05-29T08:32:07.257Z,34.42
2017-05-29T08:33:07.856Z,34.58
2017-05-29T08:34:08.450Z,34.89
2017-05-29T08:35:09.040Z,35.15
2017-05-29T08:36:09.624Z,35.18
2017-05-29T08:37:10.223Z,35.23
2017-05-29T08:38:10.819Z,34.71
2017-05-29T08:39:11.412Z,34.74
2017-05-29T08:40:11.993Z,34.86
2017-05-29T08:41:12.780Z,35.18
2017-05-29T08:42:13.371Z,34.79
2017-05-29T08:43:13.961Z,34.65
2017-05-29T08:44:14.552Z,34.54
2017-05-29T08:45:15.142Z,34.86
2017-05-29T08:46:15.733Z,34.86
2017-05-29T08:47:16.315Z,34.96
2017-05-29T08:48:16.908Z,34.99
2017-05-29T08:49:17.500Z,34.96
2017-05-29T08:50:18.090Z,35.02
2017-05-29T08:51:18.678Z,34.95
2017-05-29T08:52:19.459Z,35.11
2017-05-29T08:53:20.047Z,35.29
2017-05-29T08:54:20.637Z,35.52
2017-05-29T08:55:21.228Z,35.82
2017-05-29T08:56:21.826Z,36.01
2017-05-29T08:57:22.420Z,35.91
2017-05-29T08:58:23.016Z,35.37
2017-05-29T08:59:23.615Z,35.47
2017-05-29T09:00:24.208Z,35.85
2017-05-29T09:01:24.794Z,36.00
2017-05-29T09:02:25.391Z,35.93
2017-05-29T09:03:25.987Z,35.37
2017-05-29T09:04:26.571Z,35.44
2017-05-29T09:05:27.165Z,35.40
2017-05-29T09:06:27.756Z,35.52
2017-05-29T09:07:28.342Z,35.67
2017-05-29T09:08:28.938Z,35.44
2017-05-29T09:09:29.531Z,35.30
2017-05-29T09:10:30.112Z,35.30
2017-05-29T09:11:30.698Z,35.40
2017-05-29T09:12:31.296Z,35.62
2017-05-29T09:13:31.885Z,35.98
2017-05-29T09:14:32.468Z,36.26
2017-05-29T09:15:33.063Z,36.30
2017-05-29T09:16:33.702Z,36.01
2017-05-29T09:17:34.291Z,36.17
2017-05-29T09:18:34.888Z,36.43
2017-05-29T09:19:35.489Z,36.11
2017-05-29T09:20:36.084Z,35.96
2017-05-29T09:21:36.677Z,36.26
2017-05-29T09:22:37.266Z,36.23
2017-05-29T09:23:37.867Z,35.92
2017-05-29T09:24:38.463Z,35.91
2017-05-29T09:25:39.051Z,36.00
2017-05-29T09:26:39.635Z,35.47
2017-05-29T09:27:40.215Z,35.57
2017-05-29T09:28:40.808Z,35.67
2017-05-29T09:29:41.396Z,35.70
2017-05-29T09:30:41.988Z,35.70
2017-05-29T09:31:42.578Z,35.47
2017-05-29T09:32:43.170Z,35.37
2017-05-29T09:33:43.767Z,35.48
2017-05-29T09:34:44.345Z,35.29
2017-05-29T09:35:44.939Z,35.32
2017-05-29T09:36:45.534Z,35.20
2017-05-29T09:37:46.118Z,35.25
2017-05-29T09:38:46.693Z,35.42
2017-05-29T09:39:47.285Z,35.40
2017-05-29T09:40:47.870Z,35.39
2017-05-29T09:41:48.499Z,35.58
2017-05-29T09:42:49.063Z,35.42
2017-05-29T09:43:49.645Z,35.59
2017-05-29T09:44:50.227Z,35.69
2017-05-29T09:45:50.828Z,35.81
2017-05-29T09:46:51.422Z,35.58
2017-05-29T09:47:52.018Z,35.45
2017-05-29T09:48:52.601Z,35.50
2017-05-29T09:49:53.181Z,35.40
2017-05-29T09:50:53.775Z,35.58
2017-05-29T09:51:54.371Z,35.69
2017-05-29T09:52:54.951Z,35.63
2017-05-29T09:53:55.543Z,35.55
2017-05-29T09:54:56.128Z,35.45
2017-05-29T09:55:56.760Z,35.52
2017-05-29T09:56:57.352Z,35.70
2017-05-29T09:57:57.945Z,35.74
2017-05-29T09:58:58.533Z,35.51
2017-05-29T09:59:59.128Z,35.51
2017-05-29T10:00:59.772Z,35.79
2017-05-29T10:02:00.354Z,35.93
2017-05-29T10:03:00.938Z,35.70
2017-05-29T10:04:01.537Z,35.59
2017-05-29T10:05:02.123Z,35.73
2017-05-29T10:06:02.718Z,35.89
2017-05-29T10:07:03.314Z,35.93
2017-05-29T10:08:03.911Z,35.92
2017-05-29T10:09:04.501Z,36.00
2017-05-29T10:10:05.096Z,36.03
2017-05-29T10:11:05.690Z,35.98
2017-05-29T10:12:06.286Z,36.17
2017-05-29T10:13:06.871Z,36.33
2017-05-29T10:14:07.457Z,36.58
2017-05-29T10:15:08.038Z,36.33
2017-05-29T10:16:08.657Z,35.92
2017-05-29T10:17:09.280Z,36.29
2017-05-29T10:18:09.878Z,36.46
2017-05-29T10:19:10.475Z,36.80
2017-05-29T10:20:11.062Z,37.02
2017-05-29T10:21:11.656Z,36.98
2017-05-29T10:22:12.247Z,37.16
2017-05-29T10:23:12.825Z,37.28
2017-05-29T10:24:13.414Z,37.42
2017-05-29T10:25:13.999Z,37.39
2017-05-29T10:26:14.595Z,37.48
2017-05-29T10:27:15.193Z,37.86
2017-05-29T10:28:15.781Z,38.24
2017-05-29T10:29:16.374Z,38.48
2017-05-29T10:30:16.966Z,38.36
2017-05-29T10:31:17.567Z,38.33
2017-05-29T10:32:18.159Z,38.23
2017-05-29T10:33:18.742Z,38.41
2017-05-29T10:34:19.333Z,38.74
2017-05-29T10:35:19.923Z,39.09
2017-05-29T10:36:20.559Z,38.82
2017-05-29T10:37:21.157Z,38.88
2017-05-29T10:38:21.744Z,38.96
2017-05-29T10:39:22.344Z,39.10
2017-05-29T10:40:22.938Z,38.83
2017-05-29T10:41:23.525Z,39.18
2017-05-29T10:42:24.125Z,39.61
2017-05-29T10:43:24.749Z,39.73
2017-05-29T10:44:25.389Z,39.55
2017-05-29T10:45:25.986Z,39.59
2017-05-29T10:46:26.569Z,39.32
2017-05-29T10:47:27.167Z,39.25
2017-05-29T10:48:27.749Z,39.54
2017-05-29T10:49:28.336Z,39.84
2017-05-29T10:50:28.932Z,39.62
2017-05-29T10:51:29.528Z,39.69
2017-05-29T10:52:30.121Z,39.98
2017-05-29T10:53:30.718Z,40.25
2017-05-29T10:54:31.301Z,40.26
2017-05-29T10:55:31.898Z,39.93
2017-05-29T10:56:32.484Z,39.70
2017-05-29T10:57:33.073Z,39.78
2017-05-29T10:58:33.666Z,39.54
2017-05-29T10:59:34.312Z,39.36
2017-05-29T11:00:34.900Z,39.06
2017-05-29T11:01:35.487Z,39.17
2017-05-29T11:02:36.087Z,39.36
2017-05-29T11:03:36.685Z,39.37
2017-05-29T11:04:37.284Z,39.62
2017-05-29T11:05:37.881Z,39.84
2017-05-29T11:06:38.467Z,39.88
2017-05-29T11:07:39.068Z,39.96
2017-05-29T11:08:39.662Z,39.61
2017-05-29T11:09:40.248Z,39.30
2017-05-29T11:10:40.849Z,39.37
2017-05-29T11:11:41.446Z,39.36
2017-05-29T11:12:42.080Z,39.81
2017-05-29T11:13:42.680Z,40.10
2017-05-29T11:14:43.279Z,40.27
2017-05-29T11:15:43.879Z,40.38
2017-05-29T11:16:44.462Z,40.27
2017-05-29T11:17:45.108Z,40.14
2017-05-29T11:18:45.691Z,40.32
2017-05-29T11:19:46.282Z,40.59
2017-05-29T11:20:46.881Z,40.75
2017-05-29T11:21:47.472Z,40.89
2017-05-29T11:22:48.061Z,40.59
2017-05-29T11:23:48.657Z,40.81
2017-05-29T11:24:49.248Z,40.81
2017-05-29T11:25:49.835Z,41.10
2017-05-29T11:26:50.423Z,41.50
2017-05-29T11:27:51.067Z,41.59
2017-05-29T11:28:51.664Z,41.55
2017-05-29T11:29:52.263Z,41.74
2017-05-29T11:30:52.862Z,41.35
2017-05-29T11:31:53.447Z,41.12
2017-05-29T11:32:54.049Z,41.50
2017-05-29T11:33:54.645Z,41.62
2017-05-29T11:34:55.240Z,41.82
2017-05-29T11:35:55.835Z,41.36
2017-05-29T11:36:56.489Z,41.62
2017-05-29T11:37:57.132Z,41.76
2017-05-29T11:38:57.714Z,41.82
2017-05-29T11:39:58.312Z,42.06
2017-05-29T11:40:58.945Z,42.22
2017-05-29T11:41:59.539Z,42.25
2017-05-29T11:43:00.120Z,41.84
2017-05-29T11:44:00.715Z,41.77
2017-05-29T11:45:01.298Z,41.85
2017-05-29T11:46:01.935Z,41.88
2017-05-29T11:47:02.523Z,41.93
2017-05-29T11:48:03.180Z,41.82
2017-05-29T11:49:03.774Z,41.94
2017-05-29T11:50:04.358Z,42.28
2017-05-29T11:51:04.956Z,42.47
2017-05-29T11:52:05.559Z,42.38
2017-05-29T11:53:06.194Z,42.25
2017-05-29T11:54:06.786Z,42.39
2017-05-29T11:55:07.385Z,42.25
2017-05-29T11:56:07.965Z,42.03
2017-05-29T11:57:08.548Z,42.18
2017-05-29T11:58:09.132Z,42.28
2017-05-29T11:59:09.713Z,42.39
2017-05-29T12:00:10.351Z,42.59
2017-05-29T12:01:10.947Z,42.65
2017-05-29T12:02:11.542Z,42.98
2017-05-29T12:03:12.128Z,42.85
2017-05-29T12:04:12.714Z,42.71
2017-05-29T12:05:13.314Z,42.52
2017-05-29T12:06:13.895Z,42.66
2017-05-29T12:07:14.540Z,42.83
2017-05-29T12:08:15.127Z,42.83
2017-05-29T12:14:56.921Z,43.27
2017-05-29T12:15:57.557Z,42.76
2017-05-29T12:16:58.196Z,42.69
2017-05-29T12:17:58.836Z,42.69
2017-05-29T12:18:59.474Z,42.76
2017-05-29T12:20:00.097Z,42.61
2017-05-29T12:21:00.728Z,42.59
2017-05-29T12:22:01.364Z,42.69
2017-05-29T12:23:02.004Z,42.76
2017-05-29T12:24:02.624Z,42.91
2017-05-29T12:25:03.261Z,43.35
2017-05-29T12:26:03.890Z,43.40
2017-05-29T12:27:04.529Z,42.95
2017-05-29T12:28:05.159Z,43.26
2017-05-29T12:29:05.836Z,43.33
2017-05-29T12:30:06.473Z,43.42
2017-05-29T12:31:07.094Z,43.23
2017-05-29T12:32:07.731Z,43.27
2017-05-29T12:33:08.362Z,43.30
2017-05-29T12:34:09.052Z,43.30
2017-05-29T12:35:09.678Z,43.38
2017-05-29T12:36:10.304Z,43.52
2017-05-29T12:37:10.937Z,43.25
2017-05-29T12:38:11.560Z,43.03
2017-05-29T12:39:12.202Z,42.85
2017-05-29T12:40:12.836Z,43.09
2017-05-29T12:41:13.472Z,43.22
2017-05-29T12:42:14.099Z,43.27
2017-05-29T12:43:14.794Z,43.30
2017-05-29T12:44:15.419Z,43.59
2017-05-29T12:45:16.045Z,43.88
2017-05-29T12:46:16.681Z,43.51
2017-05-29T12:47:17.325Z,43.29
2017-05-29T12:48:18.006Z,43.05
2017-05-29T12:49:18.634Z,42.84
2017-05-29T12:50:19.275Z,42.94
2017-05-29T12:51:19.922Z,43.10
2017-05-29T12:52:20.546Z,43.47
2017-05-29T12:53:21.231Z,43.67
2017-05-29T12:54:21.878Z,43.52
2017-05-29T12:55:22.518Z,43.42
2017-05-29T12:56:23.159Z,43.06
2017-05-29T12:57:23.789Z,43.25
2017-05-29T12:58:24.431Z,43.06
2017-05-29T12:59:25.062Z,43.13
2017-05-29T13:00:25.700Z,43.29
2017-05-29T13:01:26.337Z,43.25
2017-05-29T13:02:26.977Z,43.47
2017-05-29T13:03:27.624Z,43.67
2017-05-29T13:04:28.264Z,44.04
2017-05-29T13:05:28.909Z,44.00
2017-05-29T13:06:29.550Z,43.56